createdAt,value
2019-06-01T00:00:34.565Z,22.30
2019-06-01T00:01:42.424Z,23.22
2019-06-01T00:02:54.583Z,25.13
2019-06-01T00:03:54.764Z,25.40
2019-06-01T00:05:02.793Z,23.27
2019-06-01T00:06:08.069Z,25.48
2019-06-01T00:07:12.815Z,25.75
2019-06-01T00:08:18.020Z,25.50
2019-06-01T00:09:22.647Z,23.87
2019-06-01T00:10:27.834Z,28.40
2019-06-01T00:11:32.646Z,25.67
2019-06-01T00:12:39.536Z,94.87
2019-06-01T00:13:45.526Z,84.67
2019-06-01T00:14:50.840Z,52.90
2019-06-01T00:15:55.460Z,40.70
2019-06-01T00:17:01.634Z,29.95
2019-06-01T00:18:06.328Z,80.47
2019-06-01T00:19:11.562Z,29.48
2019-06-01T00:20:16.207Z,35.47
2019-06-01T00:21:21.799Z,222.12
2019-06-01T00:22:26.439Z,66.67
2019-06-01T00:23:31.640Z,54.70
2019-06-01T00:24:36.183Z,27.90
2019-06-01T00:25:42.376Z,31.77
2019-06-01T00:26:49.800Z,27.70
2019-06-01T00:27:55.122Z,21.97
2019-06-01T00:28:59.675Z,27.73
2019-06-01T00:30:05.210Z,28.80
2019-06-01T00:31:10.195Z,23.25
2019-06-01T00:32:15.395Z,23.67
2019-06-01T00:33:20.103Z,25.83
2019-06-01T00:34:25.308Z,23.30
2019-06-01T00:35:29.951Z,23.27
2019-06-01T00:36:35.105Z,27.57
2019-06-01T00:37:39.676Z,24.20
2019-06-01T00:38:45.661Z,28.50
2019-06-01T00:39:50.410Z,27.70
2019-06-01T00:40:55.576Z,25.77
2019-06-01T00:42:00.268Z,36.83
2019-06-01T00:43:05.513Z,23.67
2019-06-01T00:44:13.172Z,26.50
2019-06-01T00:45:20.051Z,26.33
2019-06-01T00:46:25.652Z,24.33
2019-06-01T00:47:30.834Z,28.40
2019-06-01T00:48:35.438Z,23.87
2019-06-01T00:49:40.586Z,34.58
2019-06-01T00:50:45.187Z,25.80
2019-06-01T00:51:52.101Z,32.10
2019-06-01T00:52:57.017Z,49.40
2019-06-01T00:54:02.246Z,29.50
2019-06-01T00:55:07.477Z,24.80
2019-06-01T00:56:12.843Z,24.43
2019-06-01T00:57:17.560Z,28.67
2019-06-01T00:58:22.823Z,26.07
2019-06-01T00:59:27.478Z,29.53
2019-06-01T01:00:43.327Z,25.37
2019-06-01T01:01:38.916Z,29.98
2019-06-01T01:02:44.118Z,26.17
2019-06-01T01:03:48.718Z,26.77
2019-06-01T01:05:13.748Z,25.50
2019-06-01T01:06:18.361Z,24.37
2019-06-01T01:07:23.584Z,25.73
2019-06-01T01:08:28.275Z,29.60
2019-06-01T01:09:33.483Z,24.53
2019-06-01T01:10:38.042Z,29.07
2019-06-01T01:11:43.204Z,30.77
2019-06-01T01:13:04.621Z,27.40
2019-06-01T01:14:09.862Z,25.55
2019-06-01T01:15:14.704Z,34.55
2019-06-01T01:16:19.952Z,31.37
2019-06-01T01:17:24.600Z,27.23
2019-06-01T01:18:31.048Z,25.57
2019-06-01T01:19:35.648Z,32.67
2019-06-01T01:20:40.816Z,37.20
2019-06-01T01:21:45.976Z,26.90
2019-06-01T01:22:52.224Z,26.70
2019-06-01T01:23:56.975Z,31.42
2019-06-01T01:25:02.241Z,30.68
2019-06-01T01:26:06.904Z,27.37
2019-06-01T01:27:12.138Z,33.33
2019-06-01T01:28:16.699Z,28.13
2019-06-01T01:29:21.900Z,29.73
2019-06-01T01:30:26.557Z,28.03
2019-06-01T01:31:32.682Z,26.97
2019-06-01T01:32:37.265Z,26.10
2019-06-01T01:33:55.500Z,26.63
2019-06-01T01:35:01.119Z,27.82
2019-06-01T01:36:06.588Z,26.80
2019-06-01T01:37:11.219Z,27.95
2019-06-01T01:38:16.376Z,31.42
2019-06-01T01:39:21.133Z,34.85
2019-06-01T01:40:26.326Z,29.37
2019-06-01T01:41:30.920Z,29.00
2019-06-01T01:42:36.199Z,28.43
2019-06-01T01:43:40.806Z,26.50
2019-06-01T01:44:46.054Z,28.10
2019-06-01T01:45:50.693Z,30.60
2019-06-01T01:46:57.437Z,29.95
2019-06-01T01:48:02.144Z,31.77
2019-06-01T01:49:07.293Z,26.57
2019-06-01T01:50:12.658Z,27.62
2019-06-01T01:51:17.846Z,28.13
2019-06-01T01:52:34.033Z,24.93
2019-06-01T01:53:40.220Z,29.03
2019-06-01T01:54:45.873Z,31.10
2019-06-01T01:55:51.151Z,29.80
2019-06-01T01:56:56.181Z,29.07
2019-06-01T01:58:01.752Z,28.35
2019-06-01T01:59:06.505Z,31.20
2019-06-01T02:00:13.119Z,30.25
2019-06-01T02:01:22.847Z,32.10
2019-06-01T02:02:24.566Z,29.57
2019-06-01T02:03:29.296Z,30.20
2019-06-01T02:04:34.544Z,28.80
2019-06-01T02:05:39.112Z,29.20
2019-06-01T02:06:44.340Z,28.20
2019-06-01T02:07:48.927Z,31.12
2019-06-01T02:08:55.097Z,28.90
2019-06-01T02:09:59.775Z,35.90
2019-06-01T02:11:05.030Z,29.32
2019-06-01T02:12:13.071Z,29.20
2019-06-01T02:13:18.243Z,29.67
2019-06-01T02:14:22.819Z,28.55
2019-06-01T02:15:28.114Z,28.93
2019-06-01T02:16:33.735Z,29.30
2019-06-01T02:17:38.957Z,31.17
2019-06-01T02:18:43.558Z,28.57
2019-06-01T02:19:48.728Z,27.60
2019-06-01T02:20:54.365Z,28.43
2019-06-01T02:22:00.675Z,31.62
2019-06-01T02:23:06.117Z,32.95
2019-06-01T02:24:11.293Z,29.98
2019-06-01T02:25:15.844Z,30.55
2019-06-01T02:26:21.022Z,31.97
2019-06-01T02:27:25.570Z,28.10
2019-06-01T02:28:30.766Z,33.43
2019-06-01T02:29:35.511Z,33.03
2019-06-01T02:30:40.808Z,29.60
2019-06-01T02:31:45.369Z,30.00
2019-06-01T02:32:50.487Z,30.43
2019-06-01T02:33:56.328Z,30.27
2019-06-01T02:35:21.433Z,29.37
2019-06-01T02:36:26.067Z,31.23
2019-06-01T02:37:31.229Z,30.23
2019-06-01T02:38:35.843Z,27.80
2019-06-01T02:39:41.146Z,28.83
2019-06-01T02:40:45.726Z,28.70
2019-06-01T02:41:50.872Z,27.60
2019-06-01T02:42:56.950Z,29.20
2019-06-01T02:44:03.751Z,29.45
2019-06-01T02:45:11.556Z,28.70
2019-06-01T02:46:16.688Z,29.37
2019-06-01T02:47:22.279Z,28.43
2019-06-01T02:48:27.427Z,26.87
2019-06-01T02:49:32.066Z,29.90
2019-06-01T02:50:37.313Z,28.37
2019-06-01T02:51:41.980Z,29.30
2019-06-01T02:52:47.127Z,32.73
2019-06-01T02:54:04.180Z,30.20
2019-06-01T02:55:13.550Z,29.75
2019-06-01T02:56:18.182Z,29.13
2019-06-01T02:57:23.352Z,28.93
2019-06-01T02:58:27.955Z,28.95
2019-06-01T02:59:33.133Z,27.10
2019-06-01T03:01:32.882Z,30.57
2019-06-01T03:02:38.315Z,27.90
2019-06-01T03:03:43.332Z,31.17
2019-06-01T03:04:48.551Z,30.10
2019-06-01T03:05:54.670Z,43.50
2019-06-01T03:07:03.780Z,35.25
2019-06-01T03:08:08.380Z,28.40
2019-06-01T03:09:14.068Z,28.77
2019-06-01T03:10:18.730Z,27.43
2019-06-01T03:11:27.193Z,29.27
2019-06-01T03:12:34.061Z,80.17
2019-06-01T03:13:42.571Z,40.90
2019-06-01T03:14:49.414Z,30.10
2019-06-01T03:15:58.181Z,29.63
2019-06-01T03:17:04.050Z,32.88
2019-06-01T03:18:11.886Z,28.92
2019-06-01T03:19:18.465Z,29.27
2019-06-01T03:20:23.615Z,29.00
2019-06-01T03:21:31.496Z,29.87
2019-06-01T03:22:40.543Z,28.42
2019-06-01T03:23:47.770Z,30.63
2019-06-01T03:24:55.776Z,28.20
2019-06-01T03:26:02.164Z,29.45
2019-06-01T03:27:08.250Z,39.78
2019-06-01T03:28:15.910Z,32.88
2019-06-01T03:29:22.133Z,29.53
2019-06-01T03:30:37.363Z,28.47
2019-06-01T03:31:42.556Z,37.33
2019-06-01T03:32:48.066Z,30.43
2019-06-01T03:33:53.256Z,29.10
2019-06-01T03:36:04.742Z,27.17
2019-06-01T03:37:10.263Z,26.27
2019-06-01T03:38:14.950Z,27.42
2019-06-01T03:39:20.572Z,27.43
2019-06-01T03:40:25.127Z,28.12
2019-06-01T03:41:30.357Z,26.87
2019-06-01T03:42:35.051Z,27.70
2019-06-01T03:43:40.209Z,27.57
2019-06-01T03:44:45.824Z,28.20
2019-06-01T03:45:50.989Z,25.00
2019-06-01T03:46:55.723Z,30.33
2019-06-01T03:48:00.928Z,30.12
2019-06-01T03:49:05.777Z,24.30
2019-06-01T03:50:11.157Z,30.62
2019-06-01T03:51:15.801Z,27.48
2019-06-01T03:52:21.008Z,24.83
2019-06-01T03:53:25.612Z,25.80
2019-06-01T03:54:30.802Z,32.13
2019-06-01T03:55:35.380Z,23.97
2019-06-01T03:56:40.825Z,28.52
2019-06-01T03:57:45.416Z,29.17
2019-06-01T03:58:50.626Z,28.60
2019-06-01T03:59:55.340Z,22.10
2019-06-01T04:01:00.894Z,25.45
2019-06-01T04:02:09.103Z,25.52
2019-06-01T04:03:14.614Z,25.72
2019-06-01T04:04:19.161Z,27.55
2019-06-01T04:05:24.320Z,26.60
2019-06-01T04:06:28.935Z,26.62
2019-06-01T04:07:34.121Z,30.93
2019-06-01T04:08:38.732Z,28.00
2019-06-01T04:09:44.887Z,24.80
2019-06-01T04:10:49.511Z,27.03
2019-06-01T04:11:54.712Z,26.93
2019-06-01T04:12:59.263Z,24.47
2019-06-01T04:14:05.616Z,24.65
2019-06-01T04:15:14.875Z,25.55
2019-06-01T04:16:17.273Z,26.97
2019-06-01T04:17:21.971Z,23.15
2019-06-01T04:18:27.218Z,24.47
2019-06-01T04:19:31.825Z,23.20
2019-06-01T04:20:37.013Z,24.23
2019-06-01T04:21:41.616Z,24.27
2019-06-01T04:22:46.834Z,23.97
2019-06-01T04:23:51.435Z,24.73
2019-06-01T04:24:56.671Z,26.90
2019-06-01T04:26:02.166Z,23.50
2019-06-01T04:27:08.194Z,24.92
2019-06-01T04:28:12.896Z,26.87
2019-06-01T04:29:19.157Z,26.30
2019-06-01T04:30:26.834Z,26.20
2019-06-01T04:31:32.055Z,25.30
2019-06-01T04:32:49.478Z,24.10
2019-06-01T04:33:43.522Z,23.85
2019-06-01T04:34:48.202Z,29.17
2019-06-01T04:35:53.364Z,26.95
2019-06-01T04:36:57.944Z,25.17
2019-06-01T04:38:03.128Z,34.40
2019-06-01T04:39:09.349Z,30.05
2019-06-01T04:40:14.864Z,28.05
2019-06-01T04:41:19.611Z,29.23
2019-06-01T04:42:24.959Z,27.40
2019-06-01T04:43:29.586Z,26.23
2019-06-01T04:44:34.714Z,26.37
2019-06-01T04:45:39.331Z,30.23
2019-06-01T04:46:44.527Z,29.23
2019-06-01T04:47:49.136Z,31.20
2019-06-01T04:48:54.309Z,30.10
2019-06-01T04:49:58.924Z,25.90
2019-06-01T04:51:04.570Z,28.50
2019-06-01T04:52:09.223Z,28.87
2019-06-01T04:53:15.133Z,29.98
2019-06-01T04:54:19.833Z,24.33
2019-06-01T04:55:37.154Z,27.30
2019-06-01T04:56:42.723Z,26.93
2019-06-01T04:57:47.914Z,27.58
2019-06-01T04:58:52.542Z,25.83
2019-06-01T04:59:57.878Z,29.65
2019-06-01T05:01:02.514Z,26.75
2019-06-01T05:02:09.091Z,29.77
2019-06-01T05:03:15.206Z,30.57
2019-06-01T05:04:21.653Z,28.32
2019-06-01T05:05:26.217Z,23.30
2019-06-01T05:06:31.572Z,28.80
2019-06-01T05:07:36.223Z,25.07
2019-06-01T05:08:41.524Z,38.20
2019-06-01T05:09:46.119Z,26.55
2019-06-01T05:10:51.283Z,28.00
2019-06-01T05:11:55.891Z,24.53
2019-06-01T05:13:01.042Z,22.45
2019-06-01T05:14:06.057Z,28.12
2019-06-01T05:15:11.997Z,24.02
2019-06-01T05:16:16.711Z,27.13
2019-06-01T05:17:21.847Z,27.30
2019-06-01T05:18:26.671Z,27.43
2019-06-01T05:19:31.859Z,25.92
2019-06-01T05:20:36.485Z,26.97
2019-06-01T05:21:41.659Z,27.37
2019-06-01T05:22:46.684Z,28.20
2019-06-01T05:23:51.891Z,29.35
2019-06-01T05:24:57.208Z,28.40
2019-06-01T05:26:02.397Z,39.83
2019-06-01T05:27:07.051Z,26.42
2019-06-01T05:28:13.275Z,28.35
2019-06-01T05:29:18.249Z,26.30
2019-06-01T05:30:23.564Z,25.63
2019-06-01T05:31:28.145Z,25.17
2019-06-01T05:32:33.302Z,24.97
2019-06-01T05:33:37.985Z,23.70
2019-06-01T05:34:43.139Z,30.50
2019-06-01T05:35:47.794Z,27.60
2019-06-01T05:36:53.031Z,25.00
2019-06-01T05:37:57.721Z,26.73
2019-06-01T05:39:02.917Z,26.33
2019-06-01T05:40:08.423Z,25.90
2019-06-01T05:41:14.969Z,26.97
2019-06-01T05:42:19.691Z,26.33
2019-06-01T05:43:24.847Z,26.95
2019-06-01T05:44:29.408Z,26.20
2019-06-01T05:45:34.737Z,28.97
2019-06-01T05:46:39.470Z,24.85
2019-06-01T05:47:44.686Z,26.70
2019-06-01T05:48:49.288Z,33.75
2019-06-01T05:49:54.617Z,26.30
2019-06-01T05:50:59.284Z,27.90
2019-06-01T05:52:04.936Z,25.57
2019-06-01T05:53:10.426Z,29.57
2019-06-01T05:54:16.674Z,33.92
2019-06-01T05:55:21.390Z,26.27
2019-06-01T05:56:26.540Z,31.83
2019-06-01T05:57:31.166Z,29.27
2019-06-01T05:58:36.377Z,28.40
2019-06-01T05:59:41.003Z,70.43
2019-06-01T06:00:46.380Z,62.37
2019-06-01T06:01:51.042Z,137.30
2019-06-01T06:02:56.224Z,32.63
2019-06-01T06:04:00.808Z,37.13
2019-06-01T06:05:06.834Z,31.50
2019-06-01T06:06:11.696Z,29.95
2019-06-01T06:07:17.017Z,28.27
2019-06-01T06:08:22.194Z,35.43
2019-06-01T06:09:27.451Z,29.53
2019-06-01T06:10:32.084Z,30.70
2019-06-01T06:11:37.283Z,26.00
2019-06-01T06:12:41.853Z,28.30
2019-06-01T06:13:47.022Z,29.10
2019-06-01T06:14:51.678Z,26.57
2019-06-01T06:15:57.776Z,30.25
2019-06-01T06:17:02.448Z,28.05
2019-06-01T06:18:07.702Z,28.85
2019-06-01T06:19:12.542Z,29.05
2019-06-01T06:20:20.165Z,27.80
2019-06-01T06:21:24.900Z,32.00
2019-06-01T06:22:30.055Z,26.33
2019-06-01T06:23:34.620Z,27.83
2019-06-01T06:24:39.780Z,28.67
2019-06-01T06:25:45.787Z,26.07
2019-06-01T06:26:51.033Z,27.87
2019-06-01T06:27:55.674Z,28.20
2019-06-01T06:29:00.882Z,28.15
2019-06-01T06:30:06.230Z,26.33
2019-06-01T06:31:11.452Z,25.23
2019-06-01T06:32:17.077Z,31.37
2019-06-01T06:33:23.606Z,27.40
2019-06-01T06:34:28.365Z,29.37
2019-06-01T06:35:33.522Z,36.53
2019-06-01T06:36:38.148Z,50.23
2019-06-01T06:37:43.332Z,93.00
2019-06-01T06:38:48.872Z,43.00
2019-06-01T06:39:54.100Z,52.45
2019-06-01T06:40:59.806Z,29.87
2019-06-01T06:42:05.281Z,27.40
2019-06-01T06:43:19.284Z,146.65
2019-06-01T06:44:16.775Z,56.23
2019-06-01T06:45:21.469Z,25.97
2019-06-01T06:46:27.035Z,36.00
2019-06-01T06:47:31.647Z,39.60
2019-06-01T06:48:37.861Z,32.53
2019-06-01T06:49:42.429Z,29.40
2019-06-01T06:50:47.680Z,25.23
2019-06-01T06:51:52.253Z,35.77
2019-06-01T06:52:57.764Z,25.48
2019-06-01T06:54:02.380Z,29.90
2019-06-01T06:55:07.745Z,27.35
2019-06-01T06:56:12.396Z,30.70
2019-06-01T06:57:17.975Z,20.57
2019-06-01T06:58:22.792Z,23.97
2019-06-01T06:59:27.967Z,28.90
2019-06-01T07:00:32.557Z,65.20
2019-06-01T07:01:37.721Z,22.67
2019-06-01T07:02:42.405Z,23.85
2019-06-01T07:03:47.604Z,23.37
2019-06-01T07:04:52.299Z,22.65
2019-06-01T07:05:58.123Z,67.65
2019-06-01T07:07:02.739Z,18.83
2019-06-01T07:08:09.024Z,19.60
2019-06-01T07:09:13.699Z,17.17
2019-06-01T07:10:20.076Z,17.33
2019-06-01T07:11:25.341Z,21.50
2019-06-01T07:12:31.577Z,29.93
2019-06-01T07:13:36.287Z,24.37
2019-06-01T07:14:41.503Z,20.17
2019-06-01T07:15:46.203Z,14.67
2019-06-01T07:16:51.357Z,23.00
2019-06-01T07:17:55.951Z,22.53
2019-06-01T07:19:01.266Z,16.77
2019-06-01T07:20:06.584Z,15.60
2019-06-01T07:21:11.759Z,14.97
2019-06-01T07:22:17.244Z,15.67
2019-06-01T07:23:23.728Z,14.60
2019-06-01T07:24:30.231Z,14.17
2019-06-01T07:25:35.380Z,13.83
2019-06-01T07:26:39.991Z,12.73
2019-06-01T07:27:45.219Z,12.63
2019-06-01T07:28:49.815Z,14.40
2019-06-01T07:29:55.118Z,12.87
2019-06-01T07:30:59.675Z,13.40
2019-06-01T07:32:04.950Z,11.80
2019-06-01T07:33:09.606Z,12.17
2019-06-01T07:34:31.597Z,16.30
2019-06-01T07:35:22.417Z,12.90
2019-06-01T07:36:28.692Z,13.70
2019-06-01T07:37:33.640Z,11.07
2019-06-01T07:38:38.866Z,11.63
2019-06-01T07:39:43.473Z,13.50
2019-06-01T07:40:48.660Z,16.23
2019-06-01T07:41:53.270Z,10.43
2019-06-01T07:42:58.515Z,10.60
2019-06-01T07:44:03.206Z,12.60
2019-06-01T07:45:08.575Z,10.37
2019-06-01T07:46:13.220Z,14.13
2019-06-01T07:47:18.373Z,14.70
2019-06-01T07:48:23.138Z,10.60
2019-06-01T07:49:29.158Z,11.60
2019-06-01T07:50:33.821Z,10.10
2019-06-01T07:51:39.132Z,11.53
2019-06-01T07:52:43.763Z,12.10
2019-06-01T07:53:48.996Z,10.77
2019-06-01T07:54:53.617Z,10.43
2019-06-01T07:55:58.835Z,13.60
2019-06-01T07:57:04.685Z,15.37
2019-06-01T07:58:09.947Z,12.27
2019-06-01T07:59:14.773Z,11.30
2019-06-01T08:00:22.385Z,11.53
2019-06-01T08:01:27.831Z,14.67
2019-06-01T08:02:34.050Z,31.83
2019-06-01T08:03:38.706Z,14.70
2019-06-01T08:04:53.648Z,46.83
2019-06-01T08:05:51.673Z,11.43
2019-06-01T08:06:57.964Z,14.10
2019-06-01T08:08:02.800Z,31.23
2019-06-01T08:09:08.504Z,39.23
2019-06-01T08:10:14.430Z,19.70
2019-06-01T08:11:21.162Z,10.80
2019-06-01T08:12:27.431Z,35.03
2019-06-01T08:13:35.466Z,12.60
2019-06-01T08:14:39.387Z,19.63
2019-06-01T08:15:44.838Z,9.50
2019-06-01T08:16:50.095Z,10.30
2019-06-01T08:17:55.429Z,14.80
2019-06-01T08:19:00.227Z,7.83
2019-06-01T08:20:06.059Z,8.47
2019-06-01T08:21:10.732Z,7.13
2019-06-01T08:22:16.868Z,10.20
2019-06-01T08:23:21.881Z,8.30
2019-06-01T08:24:28.203Z,8.97
2019-06-01T08:25:33.084Z,11.30
2019-06-01T08:26:38.277Z,8.40
2019-06-01T08:27:42.956Z,11.30
2019-06-01T08:28:48.107Z,9.50
2019-06-01T08:29:52.729Z,53.77
2019-06-01T08:30:57.951Z,14.57
2019-06-01T08:32:02.538Z,9.77
2019-06-01T08:33:07.834Z,9.77
2019-06-01T08:34:12.481Z,7.93
2019-06-01T08:35:17.710Z,12.63
2019-06-01T08:36:23.098Z,8.67
2019-06-01T08:37:29.364Z,7.90
2019-06-01T08:38:34.073Z,7.53
2019-06-01T08:39:39.339Z,6.70
2019-06-01T08:40:44.123Z,6.67
2019-06-01T08:41:53.021Z,10.23
2019-06-01T08:42:57.651Z,6.83
2019-06-01T08:44:02.927Z,6.33
2019-06-01T08:45:07.964Z,5.80
2019-06-01T08:46:13.200Z,6.60
2019-06-01T08:47:17.772Z,8.00
2019-06-01T08:48:23.656Z,7.33
2019-06-01T08:49:28.402Z,5.80
2019-06-01T08:50:34.035Z,5.13
2019-06-01T08:51:38.878Z,7.13
2019-06-01T08:52:44.102Z,7.23
2019-06-01T08:53:48.860Z,6.07
2019-06-01T08:54:54.292Z,7.20
2019-06-01T08:55:58.999Z,7.13
2019-06-01T08:57:04.315Z,11.13
2019-06-01T08:58:09.079Z,5.83
2019-06-01T08:59:14.554Z,7.97
2019-06-01T09:00:19.388Z,6.53
2019-06-01T09:01:24.761Z,6.53
2019-06-01T09:02:30.724Z,9.40
2019-06-01T09:03:43.670Z,6.53
2019-06-01T09:04:43.485Z,7.03
2019-06-01T09:05:48.638Z,7.30
2019-06-01T09:06:53.264Z,6.60
2019-06-01T09:07:58.481Z,8.30
2019-06-01T09:09:03.493Z,6.57
2019-06-01T09:10:09.471Z,6.63
2019-06-01T09:11:14.093Z,6.23
2019-06-01T09:12:19.295Z,6.03
2019-06-01T09:13:25.032Z,6.60
2019-06-01T09:14:31.367Z,6.73
2019-06-01T09:15:36.148Z,8.77
2019-06-01T09:16:41.433Z,14.60
2019-06-01T09:17:46.044Z,15.83
2019-06-01T09:18:51.254Z,17.13
2019-06-01T09:19:55.837Z,21.43
2019-06-01T09:21:01.354Z,13.83
2019-06-01T09:22:06.146Z,8.93
2019-06-01T09:23:11.323Z,8.73
2019-06-01T09:24:16.043Z,12.60
2019-06-01T09:25:21.244Z,8.10
2019-06-01T09:26:27.661Z,7.77
2019-06-01T09:27:33.955Z,7.10
2019-06-01T09:28:38.832Z,7.03
2019-06-01T09:29:44.842Z,6.97
2019-06-01T09:30:49.941Z,6.60
2019-06-01T09:31:55.212Z,13.93
2019-06-01T09:32:59.896Z,7.83
2019-06-01T09:34:05.369Z,8.17
2019-06-01T09:35:10.142Z,15.40
2019-06-01T09:36:15.365Z,10.97
2019-06-01T09:37:19.972Z,11.60
2019-06-01T09:38:27.533Z,9.07
2019-06-01T09:39:33.166Z,7.20
2019-06-01T09:40:38.570Z,12.23
2019-06-01T09:41:43.244Z,11.33
2019-06-01T09:42:48.510Z,13.10
2019-06-01T09:43:53.208Z,8.10
2019-06-01T09:44:58.468Z,8.83
2019-06-01T09:46:03.176Z,6.67
2019-06-01T09:47:08.363Z,8.77
2019-06-01T09:48:12.978Z,7.63
2019-06-01T09:49:18.181Z,9.63
2019-06-01T09:50:22.997Z,9.03
2019-06-01T09:51:29.465Z,8.50
2019-06-01T09:52:35.471Z,9.10
2019-06-01T09:53:40.803Z,19.60
2019-06-01T09:54:45.524Z,6.10
2019-06-01T09:55:50.735Z,7.97
2019-06-01T09:56:55.431Z,7.00
2019-06-01T09:58:00.584Z,18.00
2019-06-01T09:59:05.219Z,16.27
2019-06-01T10:00:12.031Z,9.63
2019-06-01T10:01:16.791Z,8.23
2019-06-01T10:02:22.110Z,7.90
2019-06-01T10:03:28.131Z,9.37
2019-06-01T10:04:34.429Z,8.63
2019-06-01T10:05:39.135Z,6.90
2019-06-01T10:06:44.438Z,11.30
2019-06-01T10:07:49.063Z,7.40
2019-06-01T10:08:54.232Z,7.03
2019-06-01T10:09:58.866Z,7.10
2019-06-01T10:11:04.213Z,7.30
2019-06-01T10:12:08.884Z,10.07
2019-06-01T10:13:14.166Z,7.13
2019-06-01T10:14:18.770Z,6.90
2019-06-01T10:15:24.041Z,8.80
2019-06-01T10:16:28.645Z,7.90
2019-06-01T10:17:35.154Z,7.80
2019-06-01T10:18:39.982Z,7.97
2019-06-01T10:19:45.273Z,9.83
2019-06-01T10:20:49.842Z,7.87
2019-06-01T10:21:55.091Z,8.07
2019-06-01T10:22:59.727Z,7.47
2019-06-01T10:24:05.013Z,11.67
2019-06-01T10:25:09.987Z,7.90
2019-06-01T10:26:15.222Z,7.90
2019-06-01T10:27:19.876Z,9.20
2019-06-01T10:28:25.154Z,7.90
2019-06-01T10:29:30.532Z,10.60
2019-06-01T10:30:35.906Z,9.43
2019-06-01T10:31:41.617Z,7.40
2019-06-01T10:32:47.138Z,7.57
2019-06-01T10:33:52.142Z,8.03
2019-06-01T10:34:57.855Z,9.90
2019-06-01T10:36:19.188Z,8.20
2019-06-01T10:37:09.423Z,7.67
2019-06-01T10:38:14.100Z,8.23
2019-06-01T10:39:19.863Z,7.90
2019-06-01T10:40:24.647Z,8.37
2019-06-01T10:41:31.148Z,7.57
2019-06-01T10:42:36.552Z,9.20
2019-06-01T10:43:43.007Z,7.97
2019-06-01T10:44:47.618Z,7.90
2019-06-01T10:45:52.865Z,9.30
2019-06-01T10:46:57.446Z,7.63
2019-06-01T10:48:02.638Z,7.83
2019-06-01T10:49:07.265Z,10.50
2019-06-01T10:50:12.550Z,9.57
2019-06-01T10:51:17.220Z,8.70
2019-06-01T10:52:22.575Z,10.33
2019-06-01T10:53:27.199Z,9.50
2019-06-01T10:54:32.854Z,8.13
2019-06-01T10:55:38.421Z,8.63
2019-06-01T10:56:43.914Z,8.00
2019-06-01T10:57:48.561Z,7.80
2019-06-01T10:58:59.940Z,7.57
2019-06-01T11:00:00.285Z,9.30
2019-06-01T11:01:05.507Z,11.60
2019-06-01T11:02:10.166Z,10.30
2019-06-01T11:03:15.566Z,10.10
2019-06-01T11:04:20.156Z,7.40
2019-06-01T11:05:25.443Z,8.70
2019-06-01T11:06:38.840Z,8.17
2019-06-01T11:07:37.196Z,9.20
2019-06-01T11:08:43.038Z,7.73
2019-06-01T11:09:49.536Z,7.00
2019-06-01T11:10:54.254Z,6.33
2019-06-01T11:11:59.486Z,10.83
2019-06-01T11:13:05.144Z,6.00
2019-06-01T11:14:10.402Z,6.20
2019-06-01T11:15:15.108Z,5.90
2019-06-01T11:16:20.315Z,5.27
2019-06-01T11:17:24.940Z,8.60
2019-06-01T11:18:30.074Z,6.90
2019-06-01T11:19:35.271Z,6.70
2019-06-01T11:20:41.515Z,6.63
2019-06-01T11:21:46.256Z,8.63
2019-06-01T11:22:51.437Z,6.57
2019-06-01T11:23:55.996Z,6.30
2019-06-01T11:25:01.208Z,5.50
2019-06-01T11:26:06.052Z,6.30
2019-06-01T11:27:11.370Z,5.07
2019-06-01T11:28:16.033Z,6.87
2019-06-01T11:29:21.239Z,8.17
2019-06-01T11:30:25.943Z,5.93
2019-06-01T11:31:31.137Z,5.80
2019-06-01T11:32:36.016Z,6.93
2019-06-01T11:33:42.022Z,10.40
2019-06-01T11:34:47.909Z,7.87
2019-06-01T11:35:54.063Z,8.03
2019-06-01T11:37:05.357Z,6.20
2019-06-01T11:38:05.692Z,7.10
2019-06-01T11:39:11.300Z,6.23
2019-06-01T11:40:16.797Z,5.70
2019-06-01T11:41:21.372Z,5.50
2019-06-01T11:42:27.600Z,7.30
2019-06-01T11:43:32.280Z,5.17
2019-06-01T11:44:38.582Z,6.40
2019-06-01T11:45:45.216Z,5.23
2019-06-01T11:46:50.807Z,5.60
2019-06-01T11:47:55.679Z,8.53
2019-06-01T11:49:00.922Z,5.63
2019-06-01T11:50:06.198Z,5.03
2019-06-01T11:51:11.546Z,6.43
2019-06-01T11:52:16.138Z,7.37
2019-06-01T11:53:21.318Z,5.70
2019-06-01T11:54:25.871Z,6.00
2019-06-01T11:55:31.106Z,7.27
2019-06-01T11:56:37.194Z,8.73
2019-06-01T11:57:43.480Z,6.90
2019-06-01T11:58:48.159Z,10.27
2019-06-01T11:59:53.380Z,13.40
2019-06-01T12:00:57.983Z,8.57
2019-06-01T12:02:03.679Z,6.67
2019-06-01T12:03:08.426Z,7.03
2019-06-01T12:04:13.733Z,9.10
2019-06-01T12:05:18.639Z,5.40
2019-06-01T12:06:23.834Z,5.00
2019-06-01T12:07:29.082Z,4.83
2019-06-01T12:08:34.501Z,4.93
2019-06-01T12:09:40.327Z,4.90
2019-06-01T12:10:45.537Z,6.27
2019-06-01T12:11:50.161Z,5.80
2019-06-01T12:12:55.460Z,4.50
2019-06-01T12:14:00.029Z,9.03
2019-06-01T12:15:06.329Z,5.57
2019-06-01T12:16:10.926Z,4.90
2019-06-01T12:17:16.107Z,4.70
2019-06-01T12:18:20.825Z,5.10
2019-06-01T12:19:26.031Z,8.77
2019-06-01T12:20:30.820Z,5.10
2019-06-01T12:21:37.043Z,5.10
2019-06-01T12:22:42.855Z,5.20
2019-06-01T12:23:48.286Z,4.50
2019-06-01T12:24:52.887Z,5.00
2019-06-01T12:25:58.118Z,4.67
2019-06-01T12:27:02.777Z,4.47
2019-06-01T12:28:07.950Z,4.73
2019-06-01T12:29:12.686Z,4.87
2019-06-01T12:30:19.844Z,4.37
2019-06-01T12:31:24.342Z,7.33
2019-06-01T12:32:29.606Z,5.00
2019-06-01T12:33:34.324Z,5.53
2019-06-01T12:34:39.972Z,10.27
2019-06-01T12:35:46.064Z,5.03
2019-06-01T12:36:51.460Z,4.50
2019-06-01T12:38:05.988Z,4.80
2019-06-01T12:39:02.999Z,4.63
2019-06-01T12:40:08.453Z,6.20
2019-06-01T12:41:13.731Z,4.73
2019-06-01T12:42:18.386Z,4.87
2019-06-01T12:43:23.672Z,4.57
2019-06-01T12:44:28.218Z,4.57
2019-06-01T12:45:33.464Z,4.80
2019-06-01T12:46:39.842Z,5.83
2019-06-01T12:47:49.608Z,5.60
2019-06-01T12:48:52.648Z,4.87
2019-06-01T12:49:58.063Z,4.50
2019-06-01T12:51:02.684Z,4.37
2019-06-01T12:52:07.875Z,4.80
2019-06-01T12:53:12.475Z,4.23
2019-06-01T12:54:17.618Z,4.20
2019-06-01T12:55:22.190Z,5.73
2019-06-01T12:56:27.402Z,4.20
2019-06-01T12:57:32.039Z,8.50
2019-06-01T12:58:37.341Z,8.50
2019-06-01T12:59:43.290Z,4.73
2019-06-01T13:00:48.754Z,16.97
2019-06-01T13:01:54.403Z,8.07
2019-06-01T13:03:06.963Z,7.50
2019-06-01T13:04:05.899Z,18.73
2019-06-01T13:05:11.509Z,8.63
2019-06-01T13:06:16.124Z,5.80
2019-06-01T13:07:21.336Z,4.90
2019-06-01T13:08:25.998Z,6.37
2019-06-01T13:09:31.466Z,4.67
2019-06-01T13:10:36.120Z,4.20
2019-06-01T13:11:41.397Z,8.33
2019-06-01T13:12:47.178Z,4.60
2019-06-01T13:13:52.640Z,4.90
2019-06-01T13:14:57.583Z,4.92
2019-06-01T13:16:02.774Z,4.33
2019-06-01T13:17:07.954Z,4.83
2019-06-01T13:18:13.183Z,5.83
2019-06-01T13:19:17.811Z,4.00
2019-06-01T13:20:23.082Z,4.50
2019-06-01T13:21:27.926Z,4.00
2019-06-01T13:22:33.203Z,4.13
2019-06-01T13:23:37.853Z,4.17
2019-06-01T13:24:43.671Z,4.20
2019-06-01T13:25:49.619Z,4.20
2019-06-01T13:26:55.146Z,4.00
2019-06-01T13:27:59.716Z,4.63
2019-06-01T13:29:05.123Z,4.13
2019-06-01T13:30:10.170Z,3.90
2019-06-01T13:31:15.359Z,4.93
2019-06-01T13:32:20.001Z,4.43
2019-06-01T13:33:25.203Z,4.03
2019-06-01T13:34:33.798Z,3.93
2019-06-01T13:35:36.791Z,3.90
2019-06-01T13:36:42.508Z,4.00
2019-06-01T13:37:48.865Z,4.03
2019-06-01T13:38:53.926Z,4.23
2019-06-01T13:40:00.118Z,8.43
2019-06-01T13:41:04.954Z,5.13
2019-06-01T13:42:10.162Z,11.17
2019-06-01T13:43:14.723Z,4.97
2019-06-01T13:44:19.870Z,4.17
2019-06-01T13:45:24.494Z,4.20
2019-06-01T13:46:29.688Z,3.70
2019-06-01T13:47:34.323Z,5.07
2019-06-01T13:48:39.546Z,3.80
2019-06-01T13:49:45.092Z,4.23
2019-06-01T13:50:52.013Z,4.50
2019-06-01T13:51:57.451Z,4.00
2019-06-01T13:53:02.732Z,3.70
2019-06-01T13:54:07.338Z,4.17
2019-06-01T13:55:13.320Z,5.47
2019-06-01T13:56:17.942Z,3.90
2019-06-01T13:57:23.205Z,3.50
2019-06-01T13:58:27.919Z,4.57
2019-06-01T13:59:33.254Z,3.73
2019-06-01T14:00:38.087Z,3.70
2019-06-01T14:01:44.965Z,3.87
2019-06-01T14:02:54.023Z,4.03
2019-06-01T14:03:56.574Z,10.10
2019-06-01T14:05:01.190Z,3.90
2019-06-01T14:06:06.581Z,3.90
2019-06-01T14:07:11.195Z,4.00
2019-06-01T14:08:28.514Z,4.17
2019-06-01T14:09:22.900Z,5.80
2019-06-01T14:10:28.182Z,7.10
2019-06-01T14:11:32.770Z,4.40
2019-06-01T14:12:37.923Z,7.03
2019-06-01T14:13:42.615Z,3.83
2019-06-01T14:14:47.820Z,4.07